sensor_id;sensor_type;location;lat;lon;timestamp;pressure;altitude;pressure_sealevel;temperature;humidity
250;BME280;109;19.806;-70.704;2023-06-22T00:01:20;101354.25;;;29.42;61.49
250;BME280;109;19.806;-70.704;2023-06-22T00:03:48;101354.28;;;29.28;61.81
250;BME280;109;19.806;-70.704;2023-06-22T00:06:14;101362.44;;;29.41;61.79
250;BME280;109;19.806;-70.704;2023-06-22T00:08:48;101368.16;;;29.36;61.50
250;BME280;109;19.806;-70.704;2023-06-22T00:11:15;101374.34;;;29.24;61.68
250;BME280;109;19.806;-70.704;2023-06-22T00:13:41;101379.13;;;29.05;62.06
250;BME280;109;19.806;-70.704;2023-06-22T00:16:08;101370.84;;;29.36;61.68
250;BME280;109;19.806;-70.704;2023-06-22T00:18:34;101376.16;;;29.23;61.96
250;BME280;109;19.806;-70.704;2023-06-22T00:21:01;101384.72;;;29.16;62.00
250;BME280;109;19.806;-70.704;2023-06-22T00:23:27;101387.00;;;28.93;62.47
250;BME280;109;19.806;-70.704;2023-06-22T00:25:54;101394.34;;;29.34;61.88
250;BME280;109;19.806;-70.704;2023-06-22T00:28:20;101390.50;;;29.24;61.74
250;BME280;109;19.806;-70.704;2023-06-22T00:30:48;101397.41;;;29.14;61.82
250;BME280;109;19.806;-70.704;2023-06-22T00:33:15;101409.75;;;29.32;61.77
250;BME280;109;19.806;-70.704;2023-06-22T00:35:42;101417.56;;;29.08;62.22
250;BME280;109;19.806;-70.704;2023-06-22T00:38:08;101421.22;;;29.21;61.63
250;BME280;109;19.806;-70.704;2023-06-22T00:40:35;101426.09;;;29.15;61.88
250;BME280;109;19.806;-70.704;2023-06-22T00:43:01;101431.59;;;29.13;61.51
250;BME280;109;19.806;-70.704;2023-06-22T00:45:28;101427.94;;;29.28;61.55
250;BME280;109;19.806;-70.704;2023-06-22T00:47:59;101425.06;;;29.31;61.01
250;BME280;109;19.806;-70.704;2023-06-22T00:50:33;101426.88;;;29.17;61.42
250;BME280;109;19.806;-70.704;2023-06-22T00:53:06;101425.66;;;29.22;61.42
250;BME280;109;19.806;-70.704;2023-06-22T00:55:44;101429.03;;;29.12;61.63
250;BME280;109;19.806;-70.704;2023-06-22T00:58:13;101426.09;;;29.15;61.70
250;BME280;109;19.806;-70.704;2023-06-22T01:00:47;101442.38;;;29.13;61.79
250;BME280;109;19.806;-70.704;2023-06-22T01:03:14;101436.91;;;29.43;61.10
250;BME280;109;19.806;-70.704;2023-06-22T01:05:50;101438.06;;;29.53;60.84
250;BME280;109;19.806;-70.704;2023-06-22T01:08:23;101432.56;;;29.41;61.36
250;BME280;109;19.806;-70.704;2023-06-22T01:14:05;101439.31;;;29.34;61.40
250;BME280;109;19.806;-70.704;2023-06-22T01:16:44;101441.44;;;29.43;61.30
250;BME280;109;19.806;-70.704;2023-06-22T01:19:35;101445.13;;;29.56;60.87
250;BME280;109;19.806;-70.704;2023-06-22T01:22:10;101439.44;;;29.46;60.94
250;BME280;109;19.806;-70.704;2023-06-22T01:25:13;101443.06;;;29.45;60.91
250;BME280;109;19.806;-70.704;2023-06-22T01:30:33;101454.66;;;29.47;60.39
250;BME280;109;19.806;-70.704;2023-06-22T01:33:05;101450.03;;;29.49;60.17
250;BME280;109;19.806;-70.704;2023-06-22T01:35:46;101441.75;;;29.52;60.09
250;BME280;109;19.806;-70.704;2023-06-22T01:38:33;101453.97;;;29.58;59.97
250;BME280;109;19.806;-70.704;2023-06-22T01:41:13;101448.66;;;29.42;60.77
250;BME280;109;19.806;-70.704;2023-06-22T01:43:41;101450.03;;;29.63;60.28
250;BME280;109;19.806;-70.704;2023-06-22T01:46:15;101460.94;;;29.62;60.48
250;BME280;109;19.806;-70.704;2023-06-22T01:48:46;101445.50;;;29.64;60.44
250;BME280;109;19.806;-70.704;2023-06-22T01:51:18;101452.69;;;29.78;60.42
250;BME280;109;19.806;-70.704;2023-06-22T01:53:45;101458.22;;;29.76;60.37
250;BME280;109;19.806;-70.704;2023-06-22T01:56:20;101453.78;;;29.75;60.46
250;BME280;109;19.806;-70.704;2023-06-22T01:59:17;101460.22;;;29.87;60.78
250;BME280;109;19.806;-70.704;2023-06-22T02:02:04;101469.47;;;29.54;60.99
250;BME280;109;19.806;-70.704;2023-06-22T02:04:48;101473.22;;;29.66;60.86
250;BME280;109;19.806;-70.704;2023-06-22T02:07:24;101478.31;;;29.42;61.52
250;BME280;109;19.806;-70.704;2023-06-22T02:10:03;101470.72;;;29.35;61.98
250;BME280;109;19.806;-70.704;2023-06-22T02:12:41;101474.50;;;29.46;61.78
250;BME280;109;19.806;-70.704;2023-06-22T02:15:10;101475.16;;;29.36;61.47
250;BME280;109;19.806;-70.704;2023-06-22T02:17:47;101475.84;;;29.53;61.20
250;BME280;109;19.806;-70.704;2023-06-22T02:20:14;101472.38;;;29.37;61.44
250;BME280;109;19.806;-70.704;2023-06-22T02:22:48;101466.00;;;29.52;61.21
250;BME280;109;19.806;-70.704;2023-06-22T02:25:15;101466.00;;;29.52;61.35
250;BME280;109;19.806;-70.704;2023-06-22T02:27:48;101465.13;;;29.52;60.79
250;BME280;109;19.806;-70.704;2023-06-22T02:30:16;101463.41;;;29.65;60.34
250;BME280;109;19.806;-70.704;2023-06-22T02:32:49;101466.41;;;29.60;60.13
250;BME280;109;19.806;-70.704;2023-06-22T02:35:39;101464.59;;;29.61;60.17
250;BME280;109;19.806;-70.704;2023-06-22T02:38:14;101455.22;;;29.66;59.67
250;BME280;109;19.806;-70.704;2023-06-22T02:41:00;101457.25;;;29.77;58.93
250;BME280;109;19.806;-70.704;2023-06-22T02:43:33;101457.13;;;29.79;59.14
250;BME280;109;19.806;-70.704;2023-06-22T02:46:00;101454.03;;;29.85;58.89
250;BME280;109;19.806;-70.704;2023-06-22T02:48:32;101452.59;;;29.79;58.66
250;BME280;109;19.806;-70.704;2023-06-22T02:50:59;101456.94;;;29.82;58.28
250;BME280;109;19.806;-70.704;2023-06-22T02:53:34;101456.56;;;29.74;58.87
250;BME280;109;19.806;-70.704;2023-06-22T02:56:03;101459.47;;;29.71;58.96
250;BME280;109;19.806;-70.704;2023-06-22T02:58:39;101467.38;;;29.74;58.86
250;BME280;109;19.806;-70.704;2023-06-22T03:01:10;101470.84;;;29.61;59.24
250;BME280;109;19.806;-70.704;2023-06-22T03:03:46;101474.69;;;29.57;59.16
250;BME280;109;19.806;-70.704;2023-06-22T03:06:13;101467.19;;;29.62;59.30
250;BME280;109;19.806;-70.704;2023-06-22T03:08:46;101453.47;;;29.65;59.11
250;BME280;109;19.806;-70.704;2023-06-22T03:11:13;101445.78;;;29.74;59.22
250;BME280;109;19.806;-70.704;2023-06-22T03:13:46;101440.13;;;29.64;59.04
250;BME280;109;19.806;-70.704;2023-06-22T03:16:13;101450.81;;;29.51;59.25
250;BME280;109;19.806;-70.704;2023-06-22T03:18:48;101455.63;;;29.60;59.56
250;BME280;109;19.806;-70.704;2023-06-22T03:21:14;101455.03;;;29.55;59.42
250;BME280;109;19.806;-70.704;2023-06-22T03:23:56;101456.97;;;29.53;59.88
250;BME280;109;19.806;-70.704;2023-06-22T03:26:28;101445.88;;;29.72;59.61
250;BME280;109;19.806;-70.704;2023-06-22T03:28:57;101445.69;;;29.61;59.88
250;BME280;109;19.806;-70.704;2023-06-22T03:31:31;101445.53;;;29.50;60.00
250;BME280;109;19.806;-70.704;2023-06-22T03:33:57;101461.19;;;29.57;59.83
250;BME280;109;19.806;-70.704;2023-06-22T03:36:30;101454.94;;;29.57;60.29
250;BME280;109;19.806;-70.704;2023-06-22T03:39:17;101460.41;;;29.41;59.84
250;BME280;109;19.806;-70.704;2023-06-22T03:41:51;101457.69;;;29.41;59.67
250;BME280;109;19.806;-70.704;2023-06-22T03:44:17;101461.59;;;29.51;58.98
250;BME280;109;19.806;-70.704;2023-06-22T03:46:50;101465.38;;;29.49;58.63
250;BME280;109;19.806;-70.704;2023-06-22T03:49:18;101466.69;;;29.56;58.25
250;BME280;109;19.806;-70.704;2023-06-22T03:51:51;101463.31;;;29.38;57.75
250;BME280;109;19.806;-70.704;2023-06-22T03:54:18;101455.22;;;29.52;57.64
250;BME280;109;19.806;-70.704;2023-06-22T03:56:50;101456.88;;;29.55;57.05
250;BME280;109;19.806;-70.704;2023-06-22T03:59:17;101451.44;;;29.41;56.65
250;BME280;109;19.806;-70.704;2023-06-22T04:01:50;101444.56;;;29.51;56.36
250;BME280;109;19.806;-70.704;2023-06-22T04:04:17;101440.59;;;29.56;55.95
250;BME280;109;19.806;-70.704;2023-06-22T04:06:50;101438.38;;;29.63;55.68
250;BME280;109;19.806;-70.704;2023-06-22T04:09:17;101437.22;;;29.53;55.66
250;BME280;109;19.806;-70.704;2023-06-22T04:11:50;101441.44;;;29.43;55.53
250;BME280;109;19.806;-70.704;2023-06-22T04:14:17;101450.22;;;29.46;55.59
250;BME280;109;19.806;-70.704;2023-06-22T04:16:51;101441.34;;;29.44;55.64
250;BME280;109;19.806;-70.704;2023-06-22T04:19:24;101443.78;;;29.49;55.45
250;BME280;109;19.806;-70.704;2023-06-22T04:21:57;101449.06;;;29.36;56.04
250;BME280;109;19.806;-70.704;2023-06-22T04:24:24;101449.06;;;29.36;56.23
250;BME280;109;19.806;-70.704;2023-06-22T04:26:56;101444.44;;;29.24;56.11
250;BME280;109;19.806;-70.704;2023-06-22T04:29:23;101451.25;;;29.29;56.13
250;BME280;109;19.806;-70.704;2023-06-22T04:32:01;101440.16;;;29.06;56.54
250;BME280;109;19.806;-70.704;2023-06-22T04:34:31;101450.59;;;29.12;56.48
250;BME280;109;19.806;-70.704;2023-06-22T04:37:04;101444.03;;;29.16;56.60
250;BME280;109;19.806;-70.704;2023-06-22T04:39:47;101450.97;;;29.20;56.29
250;BME280;109;19.806;-70.704;2023-06-22T04:42:14;101452.63;;;29.22;56.59
250;BME280;109;19.806;-70.704;2023-06-22T04:44:46;101449.03;;;29.22;56.33
250;BME280;109;19.806;-70.704;2023-06-22T04:47:13;101438.81;;;29.27;56.49
250;BME280;109;19.806;-70.704;2023-06-22T04:49:46;101439.22;;;29.21;56.30
250;BME280;109;19.806;-70.704;2023-06-22T04:52:13;101436.03;;;29.14;56.58
250;BME280;109;19.806;-70.704;2023-06-22T04:54:52;101425.22;;;29.00;57.05
250;BME280;109;19.806;-70.704;2023-06-22T04:57:21;101419.41;;;28.92;57.57
250;BME280;109;19.806;-70.704;2023-06-22T05:00:04;101412.19;;;28.92;58.37
250;BME280;109;19.806;-70.704;2023-06-22T05:02:45;101406.69;;;28.80;59.34
250;BME280;109;19.806;-70.704;2023-06-22T05:05:13;101410.13;;;28.68;59.85
250;BME280;109;19.806;-70.704;2023-06-22T05:07:46;101410.47;;;28.47;60.78
250;BME280;109;19.806;-70.704;2023-06-22T05:10:23;101407.44;;;28.22;60.82
250;BME280;109;19.806;-70.704;2023-06-22T05:12:58;101398.00;;;28.15;61.09
250;BME280;109;19.806;-70.704;2023-06-22T05:15:30;101393.75;;;27.95;61.88
250;BME280;109;19.806;-70.704;2023-06-22T05:18:09;101386.03;;;28.05;62.17
250;BME280;109;19.806;-70.704;2023-06-22T05:20:37;101372.69;;;28.03;62.09
250;BME280;109;19.806;-70.704;2023-06-22T05:23:10;101374.25;;;28.07;62.61
250;BME280;109;19.806;-70.704;2023-06-22T05:25:37;101374.81;;;28.12;62.58
250;BME280;109;19.806;-70.704;2023-06-22T05:28:09;101369.44;;;28.12;62.77
250;BME280;109;19.806;-70.704;2023-06-22T05:30:37;101376.88;;;28.23;62.90
250;BME280;109;19.806;-70.704;2023-06-22T05:33:10;101371.41;;;28.24;62.37
250;BME280;109;19.806;-70.704;2023-06-22T05:35:37;101365.50;;;28.34;62.14
250;BME280;109;19.806;-70.704;2023-06-22T05:38:09;101366.81;;;28.26;61.84
250;BME280;109;19.806;-70.704;2023-06-22T05:40:49;101363.53;;;28.21;62.05
250;BME280;109;19.806;-70.704;2023-06-22T05:43:16;101364.50;;;28.20;62.01
250;BME280;109;19.806;-70.704;2023-06-22T05:45:48;101359.13;;;28.35;61.92
250;BME280;109;19.806;-70.704;2023-06-22T05:48:15;101353.66;;;28.36;62.08
250;BME280;109;19.806;-70.704;2023-06-22T05:50:47;101345.50;;;28.38;61.70
250;BME280;109;19.806;-70.704;2023-06-22T05:53:14;101341.63;;;28.28;61.80
250;BME280;109;19.806;-70.704;2023-06-22T05:55:48;101343.19;;;28.32;61.60
250;BME280;109;19.806;-70.704;2023-06-22T05:58:14;101338.09;;;28.41;61.90
250;BME280;109;19.806;-70.704;2023-06-22T06:00:47;101335.91;;;28.48;61.60
250;BME280;109;19.806;-70.704;2023-06-22T06:03:14;101336.53;;;28.53;61.14
250;BME280;109;19.806;-70.704;2023-06-22T06:05:49;101340.94;;;28.54;60.95
250;BME280;109;19.806;-70.704;2023-06-22T06:08:16;101340.94;;;28.54;60.71
250;BME280;109;19.806;-70.704;2023-06-22T06:10:57;101346.34;;;28.54;60.37
250;BME280;109;19.806;-70.704;2023-06-22T06:13:29;101340.69;;;28.58;60.91
250;BME280;109;19.806;-70.704;2023-06-22T06:15:56;101340.38;;;28.63;60.79
250;BME280;109;19.806;-70.704;2023-06-22T06:18:29;101338.94;;;28.57;60.85
250;BME280;109;19.806;-70.704;2023-06-22T06:20:56;101338.28;;;28.68;60.80
250;BME280;109;19.806;-70.704;2023-06-22T06:23:28;101344.25;;;28.59;60.87
250;BME280;109;19.806;-70.704;2023-06-22T06:25:55;101337.31;;;28.69;60.79
250;BME280;109;19.806;-70.704;2023-06-22T06:28:27;101334.63;;;28.69;60.40
250;BME280;109;19.806;-70.704;2023-06-22T06:30:54;101342.81;;;28.68;60.34
250;BME280;109;19.806;-70.704;2023-06-22T06:33:26;101340.94;;;28.54;60.33
250;BME280;109;19.806;-70.704;2023-06-22T06:35:53;101339.22;;;28.53;60.66
250;BME280;109;19.806;-70.704;2023-06-22T06:38:30;101345.47;;;28.53;60.32
250;BME280;109;19.806;-70.704;2023-06-22T06:41:16;101340.00;;;28.55;60.72
250;BME280;109;19.806;-70.704;2023-06-22T06:43:49;101340.59;;;28.60;60.78
250;BME280;109;19.806;-70.704;2023-06-22T06:46:16;101338.06;;;28.57;60.57
250;BME280;109;19.806;-70.704;2023-06-22T06:48:50;101335.28;;;28.58;60.84
250;BME280;109;19.806;-70.704;2023-06-22T06:51:17;101333.81;;;28.53;60.77
250;BME280;109;19.806;-70.704;2023-06-22T06:53:50;101332.09;;;28.52;60.63
250;BME280;109;19.806;-70.704;2023-06-22T06:56:17;101336.53;;;28.53;60.42
250;BME280;109;19.806;-70.704;2023-06-22T06:58:51;101338.06;;;28.57;60.32
250;BME280;109;19.806;-70.704;2023-06-22T07:01:25;101338.34;;;28.52;60.29
250;BME280;109;19.806;-70.704;2023-06-22T07:03:57;101332.28;;;28.49;60.51
250;BME280;109;19.806;-70.704;2023-06-22T07:06:24;101339.22;;;28.53;60.36
250;BME280;109;19.806;-70.704;2023-06-22T07:09:01;101345.75;;;28.63;60.35
250;BME280;109;19.806;-70.704;2023-06-22T07:11:29;101338.00;;;28.58;60.28
250;BME280;109;19.806;-70.704;2023-06-22T07:14:02;101332.00;;;28.53;60.56
250;BME280;109;19.806;-70.704;2023-06-22T07:16:29;101341.31;;;28.48;60.68
250;BME280;109;19.806;-70.704;2023-06-22T07:19:03;101337.41;;;28.38;60.91
250;BME280;109;19.806;-70.704;2023-06-22T07:21:30;101339.94;;;28.41;60.73
250;BME280;109;19.806;-70.704;2023-06-22T07:24:02;101342.53;;;28.42;61.02
250;BME280;109;19.806;-70.704;2023-06-22T07:26:30;101343.22;;;28.46;60.87
250;BME280;109;19.806;-70.704;2023-06-22T07:29:03;101337.78;;;28.47;60.88
250;BME280;109;19.806;-70.704;2023-06-22T07:31:30;101333.13;;;28.49;60.81
250;BME280;109;19.806;-70.704;2023-06-22T07:34:03;101335.56;;;28.54;60.51
250;BME280;109;19.806;-70.704;2023-06-22T07:36:30;101338.44;;;28.51;60.53
250;BME280;109;19.806;-70.704;2023-06-22T07:39:04;101339.41;;;28.64;60.55
250;BME280;109;19.806;-70.704;2023-06-22T07:41:51;101341.03;;;28.52;60.65
250;BME280;109;19.806;-70.704;2023-06-22T07:44:24;101343.06;;;28.63;60.46
250;BME280;109;19.806;-70.704;2023-06-22T07:46:51;101347.81;;;28.59;60.60
250;BME280;109;19.806;-70.704;2023-06-22T07:49:24;101351.44;;;28.58;60.65
250;BME280;109;19.806;-70.704;2023-06-22T07:51:51;101357.41;;;28.64;60.30
250;BME280;109;19.806;-70.704;2023-06-22T07:54:23;101363.38;;;28.54;60.40
250;BME280;109;19.806;-70.704;2023-06-22T07:56:58;101365.38;;;28.51;60.38
250;BME280;109;19.806;-70.704;2023-06-22T07:59:31;101364.59;;;28.49;60.50
250;BME280;109;19.806;-70.704;2023-06-22T08:01:58;101362.50;;;28.54;60.35
250;BME280;109;19.806;-70.704;2023-06-22T08:04:31;101355.00;;;28.59;60.36
250;BME280;109;19.806;-70.704;2023-06-22T08:07:01;101351.44;;;28.58;60.41
250;BME280;109;19.806;-70.704;2023-06-22T08:09:34;101353.06;;;28.61;60.24
250;BME280;109;19.806;-70.704;2023-06-22T08:12:01;101338.53;;;28.49;60.29
250;BME280;109;19.806;-70.704;2023-06-22T08:14:37;101345.75;;;28.49;60.19
250;BME280;109;19.806;-70.704;2023-06-22T08:17:04;101342.53;;;28.42;60.25
250;BME280;109;19.806;-70.704;2023-06-22T08:19:37;101342.88;;;28.36;60.37
250;BME280;109;19.806;-70.704;2023-06-22T08:22:04;101336.09;;;28.45;60.15
250;BME280;109;19.806;-70.704;2023-06-22T08:24:37;101339.84;;;28.42;60.16
250;BME280;109;19.806;-70.704;2023-06-22T08:27:07;101332.41;;;28.47;60.29
250;BME280;109;19.806;-70.704;2023-06-22T08:29:45;101335.09;;;28.47;60.11
250;BME280;109;19.806;-70.704;2023-06-22T08:32:12;101334.09;;;28.48;60.00
250;BME280;109;19.806;-70.704;2023-06-22T08:34:45;101327.97;;;28.46;59.98
250;BME280;109;19.806;-70.704;2023-06-22T08:37:12;101322.03;;;28.40;59.88
250;BME280;109;19.806;-70.704;2023-06-22T08:39:44;101318.56;;;28.38;59.55
250;BME280;109;19.806;-70.704;2023-06-22T08:42:24;101315.31;;;28.33;59.83
250;BME280;109;19.806;-70.704;2023-06-22T08:44:51;101312.22;;;28.39;59.88
250;BME280;109;19.806;-70.704;2023-06-22T08:47:24;101305.00;;;28.39;60.05
250;BME280;109;19.806;-70.704;2023-06-22T08:49:51;101296.41;;;28.48;59.68
250;BME280;109;19.806;-70.704;2023-06-22T08:52:31;101296.31;;;28.50;59.38
250;BME280;109;19.806;-70.704;2023-06-22T08:55:05;101294.84;;;28.44;59.50
250;BME280;109;19.806;-70.704;2023-06-22T08:57:32;101299.69;;;28.53;59.42
250;BME280;109;19.806;-70.704;2023-06-22T09:00:08;101296.31;;;28.50;59.31
250;BME280;109;19.806;-70.704;2023-06-22T09:02:52;101300.31;;;28.43;59.36
250;BME280;109;19.806;-70.704;2023-06-22T09:05:19;101296.84;;;28.41;59.47
250;BME280;109;19.806;-70.704;2023-06-22T09:07:56;101295.16;;;28.54;59.27
250;BME280;109;19.806;-70.704;2023-06-22T09:10:25;101286.06;;;28.41;59.53
250;BME280;109;19.806;-70.704;2023-06-22T09:12:58;101284.94;;;28.45;59.32
250;BME280;109;19.806;-70.704;2023-06-22T09:15:25;101273.63;;;28.54;59.09
250;BME280;109;19.806;-70.704;2023-06-22T09:17:59;101273.34;;;28.58;58.77
250;BME280;109;19.806;-70.704;2023-06-22T09:20:25;101276.31;;;28.54;58.85
250;BME280;109;19.806;-70.704;2023-06-22T09:22:59;101275.28;;;28.56;58.97
250;BME280;109;19.806;-70.704;2023-06-22T09:25:25;101277.97;;;28.56;58.58
250;BME280;109;19.806;-70.704;2023-06-22T09:27:58;101280.50;;;28.44;59.11
250;BME280;109;19.806;-70.704;2023-06-22T09:30:25;101298.38;;;28.60;58.78
250;BME280;109;19.806;-70.704;2023-06-22T09:32:58;101302.28;;;28.55;59.09
250;BME280;109;19.806;-70.704;2023-06-22T09:35:26;101304.97;;;28.55;59.17
250;BME280;109;19.806;-70.704;2023-06-22T09:38:06;101310.28;;;28.56;59.21
250;BME280;109;19.806;-70.704;2023-06-22T09:40:46;101318.06;;;28.75;58.56
250;BME280;109;19.806;-70.704;2023-06-22T09:43:12;101317.50;;;28.70;58.76
250;BME280;109;19.806;-70.704;2023-06-22T09:45:45;101316.56;;;28.71;59.09
250;BME280;109;19.806;-70.704;2023-06-22T09:48:12;101327.69;;;28.65;59.03
250;BME280;109;19.806;-70.704;2023-06-22T09:50:45;101335.50;;;28.70;58.92
250;BME280;109;19.806;-70.704;2023-06-22T09:53:12;101327.88;;;28.62;58.94
250;BME280;109;19.806;-70.704;2023-06-22T09:55:46;101324.63;;;28.57;59.12
250;BME280;109;19.806;-70.704;2023-06-22T09:58:12;101333.91;;;28.51;59.03
250;BME280;109;19.806;-70.704;2023-06-22T10:00:45;101332.63;;;28.43;59.53
250;BME280;109;19.806;-70.704;2023-06-22T10:03:12;101326.25;;;28.30;59.80
250;BME280;109;19.806;-70.704;2023-06-22T10:05:46;101323.88;;;28.39;59.64
250;BME280;109;19.806;-70.704;2023-06-22T10:08:12;101327.59;;;28.37;59.42
250;BME280;109;19.806;-70.704;2023-06-22T10:10:45;101336.19;;;28.43;59.32
250;BME280;109;19.806;-70.704;2023-06-22T10:13:12;101338.09;;;28.41;59.11
250;BME280;109;19.806;-70.704;2023-06-22T10:15:46;101340.50;;;28.32;59.25
250;BME280;109;19.806;-70.704;2023-06-22T10:18:16;101350.16;;;28.50;59.20
250;BME280;109;19.806;-70.704;2023-06-22T10:20:50;101359.03;;;28.52;59.17
250;BME280;109;19.806;-70.704;2023-06-22T10:23:26;101362.25;;;28.43;59.04
250;BME280;109;19.806;-70.704;2023-06-22T10:25:53;101369.53;;;28.41;59.17
250;BME280;109;19.806;-70.704;2023-06-22T10:28:25;101368.75;;;28.54;58.98
250;BME280;109;19.806;-70.704;2023-06-22T10:30:52;101369.03;;;28.64;58.65
250;BME280;109;19.806;-70.704;2023-06-22T10:36:49;101374.84;;;28.72;58.93
250;BME280;109;19.806;-70.704;2023-06-22T10:39:22;101388.13;;;28.75;58.46
250;BME280;109;19.806;-70.704;2023-06-22T10:42:02;101388.34;;;28.86;58.35
250;BME280;109;19.806;-70.704;2023-06-22T10:44:29;101395.56;;;28.86;58.40
250;BME280;109;19.806;-70.704;2023-06-22T10:47:01;101404.53;;;29.01;58.09
250;BME280;109;19.806;-70.704;2023-06-22T10:49:28;101402.94;;;29.12;58.12
250;BME280;109;19.806;-70.704;2023-06-22T10:51:54;101410.72;;;29.17;57.88
250;BME280;109;19.806;-70.704;2023-06-22T10:54:21;101410.91;;;29.28;57.96
250;BME280;109;19.806;-70.704;2023-06-22T10:56:47;101417.69;;;29.49;57.88
250;BME280;109;19.806;-70.704;2023-06-22T10:59:14;101423.41;;;29.29;57.67
250;BME280;109;19.806;-70.704;2023-06-22T11:01:40;101436.53;;;29.35;57.71
250;BME280;109;19.806;-70.704;2023-06-22T11:04:07;101437.00;;;29.42;58.15
250;BME280;109;19.806;-70.704;2023-06-22T11:06:33;101435.78;;;29.47;57.87
250;BME280;109;19.806;-70.704;2023-06-22T11:09:00;101437.28;;;29.65;57.69
250;BME280;109;19.806;-70.704;2023-06-22T11:11:26;101445.94;;;29.85;57.36
250;BME280;109;19.806;-70.704;2023-06-22T11:13:53;101439.41;;;29.89;57.18
250;BME280;109;19.806;-70.704;2023-06-22T11:16:20;101439.13;;;29.65;57.23
250;BME280;109;19.806;-70.704;2023-06-22T11:18:46;101421.47;;;30.02;57.06
250;BME280;109;19.806;-70.704;2023-06-22T11:21:13;101420.78;;;29.98;57.36
250;BME280;109;19.806;-70.704;2023-06-22T11:23:41;101413.22;;;30.04;57.17
250;BME280;109;19.806;-70.704;2023-06-22T11:26:11;101417.66;;;30.05;56.90
250;BME280;109;19.806;-70.704;2023-06-22T11:28:38;101414.78;;;30.08;56.74
250;BME280;109;19.806;-70.704;2023-06-22T11:31:05;101416.41;;;30.37;56.32
250;BME280;109;19.806;-70.704;2023-06-22T11:33:33;101424.59;;;30.35;56.90
250;BME280;109;19.806;-70.704;2023-06-22T11:36:00;101422.41;;;30.42;56.64
250;BME280;109;19.806;-70.704;2023-06-22T11:38:26;101431.34;;;30.43;56.22
250;BME280;109;19.806;-70.704;2023-06-22T11:40:53;101435.59;;;30.32;56.55
250;BME280;109;19.806;-70.704;2023-06-22T11:43:20;101420.22;;;30.20;55.91
250;BME280;109;19.806;-70.704;2023-06-22T11:45:47;101420.34;;;30.31;56.25
250;BME280;109;19.806;-70.704;2023-06-22T11:48:13;101415.53;;;30.36;56.33
250;BME280;109;19.806;-70.704;2023-06-22T11:50:40;101416.59;;;30.34;55.89
250;BME280;109;19.806;-70.704;2023-06-22T11:53:06;101427.50;;;30.32;55.83
250;BME280;109;19.806;-70.704;2023-06-22T11:55:33;101428.47;;;30.31;56.86
250;BME280;109;19.806;-70.704;2023-06-22T11:57:59;101426.91;;;30.42;56.80
250;BME280;109;19.806;-70.704;2023-06-22T12:00:29;101429.28;;;30.46;56.85
250;BME280;109;19.806;-70.704;2023-06-22T12:02:56;101418.31;;;30.35;56.81
250;BME280;109;19.806;-70.704;2023-06-22T12:05:22;101420.03;;;30.50;56.32
250;BME280;109;19.806;-70.704;2023-06-22T12:07:52;101423.94;;;30.59;56.40
250;BME280;109;19.806;-70.704;2023-06-22T12:10:19;101428.47;;;30.71;56.08
250;BME280;109;19.806;-70.704;2023-06-22T12:12:45;101429.78;;;30.65;55.74
250;BME280;109;19.806;-70.704;2023-06-22T12:15:12;101431.94;;;30.73;55.71
250;BME280;109;19.806;-70.704;2023-06-22T12:17:38;101429.84;;;30.91;55.48
250;BME280;109;19.806;-70.704;2023-06-22T12:20:06;101434.72;;;31.11;55.30
250;BME280;109;19.806;-70.704;2023-06-22T12:22:33;101434.19;;;31.19;55.27
250;BME280;109;19.806;-70.704;2023-06-22T12:24:59;101446.59;;;31.21;54.88
250;BME280;109;19.806;-70.704;2023-06-22T12:27:26;101441.63;;;31.28;54.90
250;BME280;109;19.806;-70.704;2023-06-22T12:29:52;101441.44;;;31.44;54.83
250;BME280;109;19.806;-70.704;2023-06-22T12:32:19;101456.06;;;31.41;54.81
250;BME280;109;19.806;-70.704;2023-06-22T12:34:45;101466.63;;;31.57;54.71
250;BME280;109;19.806;-70.704;2023-06-22T12:37:12;101463.94;;;31.44;54.86
250;BME280;109;19.806;-70.704;2023-06-22T12:39:40;101459.94;;;31.50;54.83
250;BME280;109;19.806;-70.704;2023-06-22T12:42:07;101455.38;;;31.50;54.22
250;BME280;109;19.806;-70.704;2023-06-22T12:44:35;101459.59;;;31.67;54.06
250;BME280;109;19.806;-70.704;2023-06-22T12:47:02;101472.66;;;31.60;54.29
250;BME280;109;19.806;-70.704;2023-06-22T12:49:28;101466.09;;;31.39;54.75
250;BME280;109;19.806;-70.704;2023-06-22T12:51:54;101475.00;;;31.41;55.00
250;BME280;109;19.806;-70.704;2023-06-22T12:54:21;101477.25;;;31.47;54.67
250;BME280;109;19.806;-70.704;2023-06-22T12:56:47;101471.81;;;31.47;54.41
250;BME280;109;19.806;-70.704;2023-06-22T12:59:14;101466.94;;;31.65;54.43
250;BME280;109;19.806;-70.704;2023-06-22T13:01:40;101466.03;;;31.77;54.35
250;BME280;109;19.806;-70.704;2023-06-22T13:04:07;101477.75;;;31.65;53.78
250;BME280;109;19.806;-70.704;2023-06-22T13:06:33;101463.22;;;31.91;54.61
250;BME280;109;19.806;-70.704;2023-06-22T13:09:00;101465.06;;;31.91;54.31
250;BME280;109;19.806;-70.704;2023-06-22T13:11:26;101468.66;;;32.15;54.22
250;BME280;109;19.806;-70.704;2023-06-22T13:13:53;101466.69;;;31.93;54.26
250;BME280;109;19.806;-70.704;2023-06-22T13:16:19;101463.81;;;31.84;54.17
250;BME280;109;19.806;-70.704;2023-06-22T13:18:46;101463.22;;;31.91;53.65
250;BME280;109;19.806;-70.704;2023-06-22T13:21:12;101464.41;;;31.87;54.28
250;BME280;109;19.806;-70.704;2023-06-22T13:23:40;101466.44;;;32.09;54.26
250;BME280;109;19.806;-70.704;2023-06-22T13:26:07;101458.25;;;32.22;53.86
250;BME280;109;19.806;-70.704;2023-06-22T13:28:33;101449.06;;;32.11;52.73
250;BME280;109;19.806;-70.704;2023-06-22T13:31:00;101449.22;;;32.10;53.03
250;BME280;109;19.806;-70.704;2023-06-22T13:33:26;101457.19;;;32.48;52.49
250;BME280;109;19.806;-70.704;2023-06-22T13:35:53;101456.28;;;32.36;51.95
250;BME280;109;19.806;-70.704;2023-06-22T13:38:19;101449.81;;;32.50;52.14